Time;durP1;ratioP1;P1;durP2;ratioP2;P2;SDS_P1;SDS_P2;PMS_P1;PMS_P2;Temp;Humidity;BMP_temperature;BMP_pressure;BME280_temperature;BME280_humidity;BME280_pressure;Samples;Min_cycle;Max_cycle;Signal;HPM_P1;HPM_P2
2021/03/23 00:00:52;;;;;;;0.50;0.30;;;19.30;97.90;;;;;;5082569;28;20024;-68
2021/03/23 00:03:25;;;;;;;0.63;0.20;;;19.40;98.00;;;;;;5075680;28;20095;-68
2021/03/23 00:05:53;;;;;;;0.73;0.25;;;19.40;98.20;;;;;;5071834;28;21446;-68
2021/03/23 00:08:41;;;;;;;0.75;0.20;;;19.40;98.00;;;;;;5068173;28;20135;-68
2021/03/23 00:11:11;;;;;;;1.55;0.30;;;19.40;98.00;;;;;;5071321;28;20112;-68
2021/03/23 00:13:40;;;;;;;1.15;0.20;;;19.30;97.90;;;;;;5074090;28;20431;-68
2021/03/23 00:16:08;;;;;;;1.85;0.40;;;19.30;98.20;;;;;;5068151;28;20047;-69
2021/03/23 00:18:36;;;;;;;1.52;0.40;;;19.30;98.20;;;;;;5074092;28;20486;-68
2021/03/23 00:21:04;;;;;;;1.42;0.32;;;19.30;98.00;;;;;;5073550;28;20036;-68
2021/03/23 00:23:32;;;;;;;1.08;0.50;;;19.20;97.90;;;;;;5073328;28;20032;-68
2021/03/23 00:26:00;;;;;;;0.65;0.45;;;19.20;98.20;;;;;;5072382;28;20021;-68
2021/03/23 00:28:28;;;;;;;1.73;0.68;;;19.20;98.30;;;;;;5074300;28;20505;-68
2021/03/23 00:30:56;;;;;;;1.27;0.50;;;19.30;98.30;;;;;;5050931;28;20580;-68
2021/03/23 00:33:24;;;;;;;0.82;0.52;;;19.40;98.20;;;;;;5036233;28;20025;-67
2021/03/23 00:35:59;;;;;;;2.33;0.70;;;19.40;97.90;;;;;;5050781;28;20041;-69
2021/03/23 00:38:30;;;;;;;1.08;0.60;;;19.30;98.00;;;;;;5048934;28;20037;-67
2021/03/23 00:40:58;;;;;;;1.15;0.90;;;19.30;98.00;;;;;;5050952;28;20068;-67
2021/03/23 00:43:26;;;;;;;4.65;1.27;;;19.30;98.10;;;;;;5040472;28;20048;-67
2021/03/23 00:45:53;;;;;;;1.67;1.00;;;19.40;98.10;;;;;;5051759;28;20073;-67
2021/03/23 00:48:21;;;;;;;2.17;1.02;;;19.40;98.10;;;;;;5039241;28;20484;-68
2021/03/23 00:50:49;;;;;;;2.65;1.08;;;19.40;97.90;;;;;;5050417;28;20035;-68
2021/03/23 00:53:17;;;;;;;2.20;1.52;;;19.50;98.10;;;;;;5048779;28;20040;-68
2021/03/23 00:55:44;;;;;;;3.42;1.15;;;19.50;98.10;;;;;;5054961;28;20029;-68
2021/03/23 00:58:12;;;;;;;3.15;1.92;;;19.50;97.90;;;;;;5050203;28;20028;-69
2021/03/23 01:00:39;;;;;;;3.70;1.98;;;19.40;97.90;;;;;;5034534;28;20047;-67
2021/03/23 01:03:06;;;;;;;4.68;3.03;;;19.50;98.10;;;;;;5053920;28;20040;-68
2021/03/23 01:05:35;;;;;;;3.65;2.13;;;19.40;97.90;;;;;;5055530;28;20033;-67
2021/03/23 01:08:04;;;;;;;3.40;1.90;;;19.40;98.10;;;;;;5049918;28;20053;-68
2021/03/23 01:10:33;;;;;;;2.45;2.20;;;19.40;98.00;;;;;;5053146;28;20235;-68
2021/03/23 01:13:01;;;;;;;3.47;2.20;;;19.50;98.00;;;;;;5050132;28;20032;-69
2021/03/23 01:15:33;;;;;;;3.63;2.40;;;19.50;98.10;;;;;;5056599;28;20044;-69
2021/03/23 01:18:01;;;;;;;3.03;2.72;;;19.60;97.80;;;;;;5049824;28;20027;-70
2021/03/23 01:20:30;;;;;;;5.00;2.22;;;19.60;97.70;;;;;;5049188;28;20048;-71
2021/03/23 01:22:58;;;;;;;3.53;2.35;;;19.60;97.80;;;;;;5054837;28;20028;-70
2021/03/23 01:25:26;;;;;;;3.55;2.08;;;19.60;97.80;;;;;;5051543;28;20487;-71
2021/03/23 01:27:54;;;;;;;4.38;2.42;;;19.60;97.80;;;;;;5049206;28;20084;-68
2021/03/23 01:30:26;;;;;;;3.38;2.70;;;19.60;97.50;;;;;;5053109;28;20057;-69
2021/03/23 01:32:54;;;;;;;4.00;2.83;;;19.70;97.70;;;;;;5052564;28;20046;-69
2021/03/23 01:35:23;;;;;;;3.85;2.50;;;19.70;97.80;;;;;;5033430;28;20521;-69
2021/03/23 01:37:51;;;;;;;14.98;4.38;;;19.80;97.70;;;;;;5032716;28;20278;-68
2021/03/23 01:40:22;;;;;;;28.15;8.68;;;19.80;97.70;;;;;;5062643;28;20028;-69
2021/03/23 01:42:56;;;;;;;29.40;8.55;;;19.80;97.60;;;;;;5052877;28;21437;-70
2021/03/23 01:45:29;;;;;;;3.30;2.33;;;19.80;97.60;;;;;;5049742;28;20021;-70
2021/03/23 01:47:58;;;;;;;5.75;3.33;;;19.80;97.60;;;;;;5048798;28;20025;-69
2021/03/23 01:50:26;;;;;;;5.72;3.35;;;19.80;97.50;;;;;;5050964;28;20082;-70
2021/03/23 01:53:03;;;;;;;5.82;2.85;;;19.90;97.60;;;;;;5051786;28;20052;-73
2021/03/23 01:55:31;;;;;;;2.25;2.03;;;19.80;97.50;;;;;;5047502;28;20029;-73
2021/03/23 01:58:00;;;;;;;2.72;2.10;;;19.80;97.40;;;;;;5048590;28;20029;-73
2021/03/23 02:00:27;;;;;;;1.95;1.77;;;19.70;97.60;;;;;;5047531;28;20124;-74
2021/03/23 02:02:55;;;;;;;3.70;1.88;;;19.70;97.70;;;;;;5053361;28;20032;-75
2021/03/23 02:05:30;;;;;;;2.10;1.90;;;19.60;97.90;;;;;;5056439;28;20032;-73
2021/03/23 02:07:58;;;;;;;;;;;19.70;97.90;;;;;;5054975;28;20428;-71
2021/03/23 02:10:27;;;;;;;4.50;2.42;;;19.70;97.70;;;;;;5056269;28;20283;-74
2021/03/23 02:12:56;;;;;;;3.72;1.90;;;19.70;97.90;;;;;;5051324;28;20045;-74
2021/03/23 02:15:25;;;;;;;3.15;1.95;;;19.70;97.80;;;;;;5052814;28;20128;-73
2021/03/23 02:18:26;;;;;;;4.45;2.28;;;19.70;97.80;;;;;;5056026;28;20062;-73
2021/03/23 02:21:04;;;;;;;2.92;2.13;;;19.70;98.00;;;;;;4991433;28;20052;-73
2021/03/23 02:23:39;;;;;;;3.30;2.05;;;19.60;97.90;;;;;;5051158;28;20092;-75
2021/03/23 02:26:10;;;;;;;5.65;2.60;;;19.50;98.00;;;;;;5051115;28;20025;-76
2021/03/23 02:28:55;;;;;;;4.15;2.55;;;19.50;98.00;;;;;;5053874;28;20090;-75
2021/03/23 02:31:44;;;;;;;4.23;2.60;;;19.50;98.20;;;;;;5059421;28;20169;-74
2021/03/23 02:34:14;;;;;;;4.60;2.63;;;19.50;98.10;;;;;;5054005;28;20027;-74
2021/03/23 02:36:49;;;;;;;3.72;2.60;;;19.50;98.10;;;;;;5064999;28;20493;-74
2021/03/23 02:39:27;;;;;;;5.35;3.13;;;19.50;98.20;;;;;;5052815;28;20029;-74
2021/03/23 02:41:59;;;;;;;4.88;2.65;;;19.50;98.20;;;;;;5050695;28;20045;-74
2021/03/23 02:44:27;;;;;;;5.30;3.00;;;19.50;98.20;;;;;;5047257;28;20029;-70
2021/03/23 02:46:55;;;;;;;5.45;3.33;;;19.50;98.30;;;;;;5064491;28;20028;-73
2021/03/23 02:49:23;;;;;;;2.78;2.50;;;19.50;98.30;;;;;;5053304;28;20020;-73
2021/03/23 02:51:51;;;;;;;8.55;3.95;;;19.50;98.40;;;;;;5049720;28;20029;-71
2021/03/23 02:54:18;;;;;;;5.75;3.33;;;19.50;98.30;;;;;;5051437;28;20040;-71
2021/03/23 02:56:46;;;;;;;3.40;3.00;;;19.50;98.30;;;;;;5065702;28;20033;-74
2021/03/23 02:59:13;;;;;;;4.95;3.40;;;19.60;98.30;;;;;;5056397;28;20591;-73
2021/03/23 03:01:40;;;;;;;6.03;3.45;;;19.60;98.30;;;;;;5052707;28;20083;-74
2021/03/23 03:04:08;;;;;;;7.60;3.45;;;19.80;98.40;;;;;;5052569;28;20021;-74
2021/03/23 03:06:35;;;;;;;5.07;3.50;;;19.80;98.30;;;;;;5050924;28;20371;-74
2021/03/23 03:09:04;;;;;;;4.68;3.00;;;19.80;98.30;;;;;;5056102;28;20417;-73
2021/03/23 03:11:31;;;;;;;3.75;3.20;;;19.80;98.10;;;;;;5051820;28;20031;-73
2021/03/23 03:13:59;;;;;;;3.35;3.03;;;19.80;98.20;;;;;;5058385;28;20481;-74
2021/03/23 03:16:26;;;;;;;3.63;3.33;;;19.90;98.30;;;;;;5064442;28;20643;-73
2021/03/23 03:18:54;;;;;;;3.53;3.22;;;20.00;98.00;;;;;;5055954;28;20479;-74
2021/03/23 03:21:22;;;;;;;3.20;2.90;;;20.00;98.00;;;;;;5061247;28;20132;-73
2021/03/23 03:23:50;;;;;;;4.43;3.05;;;20.00;98.10;;;;;;5049985;28;20025;-72
2021/03/23 03:26:17;;;;;;;3.92;3.22;;;20.00;97.90;;;;;;5060172;28;20047;-73
2021/03/23 03:28:49;;;;;;;4.00;3.60;;;20.00;97.90;;;;;;5054326;28;20071;-75
2021/03/23 03:31:25;;;;;;;5.78;3.30;;;20.10;98.10;;;;;;5059965;28;20025;-71
2021/03/23 03:33:55;;;;;;;3.50;2.88;;;20.00;97.90;;;;;;5054319;28;20108;-74
2021/03/23 03:36:24;;;;;;;3.60;3.00;;;20.00;98.00;;;;;;5071397;28;20089;-72
2021/03/23 03:38:52;;;;;;;3.42;3.13;;;20.00;97.90;;;;;;5060866;28;20021;-71
2021/03/23 03:41:20;;;;;;;5.20;3.70;;;20.00;98.00;;;;;;5045325;28;20143;-74
2021/03/23 03:43:48;;;;;;;3.75;3.40;;;20.00;98.10;;;;;;5057477;28;20037;-73
2021/03/23 03:46:15;;;;;;;4.68;4.30;;;20.10;98.20;;;;;;5060736;28;20032;-75
2021/03/23 03:48:43;;;;;;;4.88;4.43;;;20.20;98.10;;;;;;5037276;28;20025;-71
2021/03/23 03:51:10;;;;;;;4.40;4.10;;;20.30;98.00;;;;;;5053373;28;20470;-72
2021/03/23 03:53:38;;;;;;;4.72;4.28;;;20.30;97.90;;;;;;5052371;28;20033;-72
2021/03/23 03:56:06;;;;;;;4.70;4.13;;;20.30;97.80;;;;;;5071918;28;20025;-73
2021/03/23 03:58:33;;;;;;;4.65;4.13;;;20.40;97.90;;;;;;5058991;28;20099;-74
2021/03/23 04:01:01;;;;;;;4.72;3.30;;;20.50;97.80;;;;;;5056347;28;20029;-73
2021/03/23 04:03:30;;;;;;;4.43;4.03;;;20.40;97.30;;;;;;5056205;28;20112;-71
2021/03/23 04:05:59;;;;;;;3.22;2.72;;;20.50;97.40;;;;;;5053609;28;20071;-73
2021/03/23 04:08:33;;;;;;;5.15;4.18;;;20.50;97.10;;;;;;5064417;28;20107;-71
2021/03/23 04:11:04;;;;;;;3.42;3.00;;;20.70;97.40;;;;;;5059419;28;20047;-75
2021/03/23 04:13:31;;;;;;;3.70;3.25;;;20.90;97.20;;;;;;5037257;28;20511;-74
2021/03/23 04:16:00;;;;;;;2.65;2.45;;;21.20;97.10;;;;;;5064756;28;20089;-74
2021/03/23 04:18:29;;;;;;;3.05;2.75;;;21.30;96.60;;;;;;5062664;28;20021;-73
2021/03/23 04:20:58;;;;;;;3.05;2.60;;;21.50;96.40;;;;;;5059234;28;20059;-73
2021/03/23 04:23:35;;;;;;;4.60;2.17;;;21.50;95.80;;;;;;5059620;28;20016;-72
2021/03/23 04:26:04;;;;;;;2.55;1.80;;;21.50;96.00;;;;;;5054888;28;20039;-74
2021/03/23 04:28:31;;;;;;;3.88;2.00;;;21.60;95.80;;;;;;5058972;28;20344;-73
2021/03/23 04:30:58;;;;;;;2.42;1.98;;;21.60;95.80;;;;;;5054071;28;20454;-74
2021/03/23 04:33:28;;;;;;;2.70;1.67;;;21.60;95.30;;;;;;5061445;28;20029;-74
2021/03/23 04:36:01;;;;;;;2.08;1.88;;;21.50;95.90;;;;;;5053896;28;20135;-75
2021/03/23 04:38:34;;;;;;;2.42;1.90;;;21.60;95.80;;;;;;5057182;28;20043;-75
2021/03/23 04:41:09;;;;;;;1.50;1.35;;;21.60;95.50;;;;;;5056142;28;20029;-75
2021/03/23 04:43:44;;;;;;;2.20;1.20;;;21.70;95.30;;;;;;5060468;28;20035;-74
2021/03/23 04:46:13;;;;;;;1.17;0.98;;;21.70;95.30;;;;;;5053316;28;20074;-72
2021/03/23 04:48:40;;;;;;;1.83;0.90;;;21.80;95.10;;;;;;5054686;28;20085;-76
2021/03/23 04:51:10;;;;;;;2.30;0.80;;;21.70;95.10;;;;;;5057599;28;20518;-73
2021/03/23 04:53:39;;;;;;;2.08;1.33;;;21.60;95.30;;;;;;5058649;28;20086;-76
2021/03/23 04:56:08;;;;;;;1.55;1.10;;;21.60;95.40;;;;;;5064164;28;20059;-74
2021/03/23 04:58:36;;;;;;;3.28;1.38;;;21.50;95.50;;;;;;5057246;28;20028;-71
2021/03/23 05:01:03;;;;;;;2.63;1.30;;;21.40;96.00;;;;;;5053992;28;20401;-74
2021/03/23 05:03:33;;;;;;;3.15;1.10;;;21.30;95.50;;;;;;5048926;28;20031;-72
2021/03/23 05:06:08;;;;;;;1.38;1.00;;;21.20;95.90;;;;;;5064258;28;20248;-70
2021/03/23 05:08:43;;;;;;;2.35;0.90;;;21.10;95.80;;;;;;5058472;28;20025;-70
2021/03/23 05:11:29;;;;;;;1.98;0.82;;;21.10;96.10;;;;;;5053231;28;20460;-72
2021/03/23 05:14:06;;;;;;;1.42;1.00;;;21.10;96.20;;;;;;5050168;28;20045;-70
2021/03/23 05:16:34;;;;;;;1.65;1.00;;;21.10;96.00;;;;;;5057967;28;20085;-72
2021/03/23 05:19:02;;;;;;;1.73;1.27;;;21.10;96.30;;;;;;5058126;28;20048;-73
2021/03/23 05:21:29;;;;;;;1.20;1.10;;;21.10;96.50;;;;;;5052116;28;20048;-70
2021/03/23 05:24:01;;;;;;;1.30;0.93;;;21.20;96.40;;;;;;5058081;28;20309;-71
2021/03/23 05:26:30;;;;;;;2.25;0.77;;;21.20;96.30;;;;;;5056262;28;20108;-72
2021/03/23 05:28:57;;;;;;;2.00;1.35;;;21.30;96.00;;;;;;5053367;28;20170;-74
2021/03/23 05:31:25;;;;;;;0.90;0.47;;;21.30;95.80;;;;;;5051418;28;20033;-72
2021/03/23 05:33:54;;;;;;;0.70;0.63;;;21.30;95.80;;;;;;5024428;28;20542;-75
2021/03/23 05:36:22;;;;;;;1.88;1.35;;;21.30;95.30;;;;;;5052276;28;20051;-73
2021/03/23 05:38:53;;;;;;;1.60;0.68;;;21.30;95.40;;;;;;5049421;28;20017;-73
2021/03/23 05:41:23;;;;;;;1.95;0.70;;;21.40;95.60;;;;;;5050038;28;20028;-70
2021/03/23 05:43:59;;;;;;;0.57;0.47;;;21.60;95.20;;;;;;5053931;28;20106;-70
2021/03/23 05:46:45;;;;;;;0.60;0.52;;;21.80;94.30;;;;;;5055533;28;20036;-69
2021/03/23 05:49:24;;;;;;;1.13;0.65;;;21.90;94.50;;;;;;5058878;28;20079;-69
2021/03/23 05:51:58;;;;;;;1.48;0.50;;;22.00;94.00;;;;;;5055858;28;20108;-69
2021/03/23 05:54:51;;;;;;;2.35;0.77;;;22.10;94.20;;;;;;5055865;28;20033;-69
2021/03/23 05:57:25;;;;;;;2.65;0.90;;;22.20;93.70;;;;;;5038230;28;20020;-70
2021/03/23 06:00:37;;;;;;;2.15;0.60;;;22.30;93.90;;;;;;5053826;28;20497;-71
2021/03/23 06:03:20;;;;;;;2.28;1.05;;;22.50;93.70;;;;;;5054381;28;20047;-70
2021/03/23 06:05:53;;;;;;;1.35;1.05;;;22.80;93.00;;;;;;5053491;28;20388;-71
2021/03/23 06:08:35;;;;;;;1.15;0.80;;;23.00;92.50;;;;;;5039492;28;20032;-69
2021/03/23 06:11:27;;;;;;;1.55;1.25;;;22.90;92.30;;;;;;5035852;28;20035;-72
2021/03/23 06:14:05;;;;;;;1.42;1.23;;;22.80;91.90;;;;;;5051160;28;20024;-70
2021/03/23 06:16:54;;;;;;;1.50;1.40;;;22.70;92.10;;;;;;5052829;28;20016;-70
2021/03/23 06:19:46;;;;;;;1.50;1.17;;;22.70;92.30;;;;;;5052592;28;20050;-70
2021/03/23 06:22:28;;;;;;;2.13;1.10;;;22.70;92.30;;;;;;5051461;28;20043;-72
2021/03/23 06:25:02;;;;;;;3.13;1.60;;;22.70;92.50;;;;;;5032493;28;20025;-72
2021/03/23 06:27:50;;;;;;;1.38;1.25;;;22.60;92.40;;;;;;5057421;28;20492;-69
2021/03/23 06:30:39;;;;;;;1.60;1.30;;;22.60;92.90;;;;;;5048684;28;20183;-72
2021/03/23 06:33:11;;;;;;;2.35;1.90;;;22.60;92.70;;;;;;5048256;28;20033;-69
2021/03/23 06:35:47;;;;;;;1.70;1.60;;;22.60;92.90;;;;;;5047983;28;20047;-72
2021/03/23 06:38:30;;;;;;;3.92;1.23;;;22.60;92.80;;;;;;5048234;28;20025;-69
2021/03/23 06:41:21;;;;;;;1.88;1.58;;;22.50;93.20;;;;;;5053172;28;20033;-71
2021/03/23 06:43:50;;;;;;;1.80;1.48;;;22.40;93.40;;;;;;5055759;28;20028;-71
2021/03/23 06:46:22;;;;;;;2.53;1.77;;;22.30;93.50;;;;;;5052549;28;20033;-71
2021/03/23 06:49:01;;;;;;;1.80;1.40;;;22.20;93.70;;;;;;5054466;28;20063;-71
2021/03/23 06:51:29;;;;;;;2.03;1.63;;;22.10;94.10;;;;;;5052512;28;20454;-71
2021/03/23 06:54:14;;;;;;;2.25;2.05;;;22.00;94.10;;;;;;5058233;28;20060;-71
2021/03/23 06:56:42;;;;;;;1.92;1.63;;;22.00;94.20;;;;;;5056269;28;20099;-71
2021/03/23 06:59:16;;;;;;;2.22;1.52;;;22.00;94.10;;;;;;5056919;28;20025;-71
2021/03/23 07:01:52;;;;;;;2.58;1.90;;;22.00;94.30;;;;;;5056330;28;20036;-70
2021/03/23 07:04:36;;;;;;;1.80;1.55;;;21.90;94.50;;;;;;5053063;28;20127;-70
2021/03/23 07:07:21;;;;;;;1.95;1.45;;;21.90;94.30;;;;;;5053628;28;20112;-71
2021/03/23 07:09:52;;;;;;;1.83;1.60;;;21.80;94.60;;;;;;5063326;28;20043;-69
2021/03/23 07:12:41;;;;;;;1.50;1.30;;;21.70;94.70;;;;;;5056049;28;20040;-69
2021/03/23 07:15:13;;;;;;;2.47;1.60;;;21.70;94.80;;;;;;5060353;28;20040;-69
2021/03/23 07:17:46;;;;;;;2.70;1.70;;;21.70;95.20;;;;;;5055832;28;20036;-68
2021/03/23 07:20:33;;;;;;;2.75;1.73;;;21.70;95.10;;;;;;5041637;28;20123;-68
2021/03/23 07:23:19;;;;;;;3.15;1.65;;;21.70;94.70;;;;;;5042766;28;20075;-71
2021/03/23 07:25:46;;;;;;;5.68;1.95;;;21.70;94.80;;;;;;5052874;28;20040;-70
2021/03/23 07:28:38;;;;;;;5.38;1.73;;;21.70;94.80;;;;;;5066568;28;20032;-70
2021/03/23 07:31:27;;;;;;;2.38;1.85;;;21.70;95.00;;;;;;5061529;28;20052;-70
2021/03/23 07:34:06;;;;;;;3.20;2.15;;;21.70;95.00;;;;;;5061668;28;20029;-72
2021/03/23 07:36:49;;;;;;;4.70;2.03;;;21.70;94.90;;;;;;5065480;28;20024;-72
2021/03/23 07:39:33;;;;;;;4.90;1.67;;;21.70;94.90;;;;;;5062688;28;20032;-71
2021/03/23 07:42:14;;;;;;;3.53;2.35;;;21.70;95.00;;;;;;5063289;28;20029;-71
2021/03/23 07:44:55;;;;;;;4.10;2.20;;;21.60;95.20;;;;;;5064344;28;20029;-69
2021/03/23 07:47:22;;;;;;;4.00;2.08;;;21.60;95.10;;;;;;5068701;28;20028;-72
2021/03/23 07:50:18;;;;;;;2.75;1.98;;;21.50;95.20;;;;;;5071755;28;20104;-71
2021/03/23 07:53:22;;;;;;;4.68;2.30;;;21.50;95.60;;;;;;5063808;28;20032;-70
2021/03/23 07:55:51;;;;;;;3.92;2.85;;;21.50;95.40;;;;;;5062726;28;20079;-69
2021/03/23 07:58:59;;;;;;;5.35;2.83;;;21.40;95.70;;;;;;5064131;28;20104;-70
2021/03/23 08:01:48;;;;;;;3.35;2.65;;;21.40;95.60;;;;;;5060416;28;20064;-68
2021/03/23 08:04:43;;;;;;;4.75;2.60;;;21.40;95.60;;;;;;5066131;28;20043;-69
2021/03/23 08:07:33;;;;;;;6.28;2.63;;;21.30;95.90;;;;;;5064942;28;20036;-70
2021/03/23 08:10:15;;;;;;;6.30;3.40;;;21.30;95.80;;;;;;5059909;28;20162;-72
2021/03/23 08:13:22;;;;;;;3.28;2.80;;;21.20;95.90;;;;;;5061833;28;20024;-72
2021/03/23 08:16:23;;;;;;;3.33;3.03;;;21.20;96.00;;;;;;5063028;28;20012;-71
2021/03/23 08:18:59;;;;;;;7.53;3.85;;;21.10;96.00;;;;;;5063627;28;20078;-71
2021/03/23 08:21:36;;;;;;;4.03;3.22;;;21.10;96.20;;;;;;5064515;28;20091;-71
2021/03/23 08:24:26;;;;;;;5.47;3.42;;;21.00;96.20;;;;;;5066188;28;20025;-67
2021/03/23 08:27:27;;;;;;;4.47;4.07;;;21.00;96.40;;;;;;5070091;28;20109;-68
2021/03/23 08:30:33;;;;;;;3.45;3.15;;;21.00;96.30;;;;;;5058891;28;20944;-69
2021/03/23 08:33:25;;;;;;;4.07;3.67;;;20.90;96.50;;;;;;5050435;28;20383;-70
2021/03/23 08:36:18;;;;;;;5.63;3.88;;;20.80;96.60;;;;;;5046962;28;20032;-68
2021/03/23 08:39:13;;;;;;;4.35;3.95;;;20.80;96.80;;;;;;5054228;28;20029;-68
2021/03/23 08:41:53;;;;;;;6.45;4.10;;;20.70;96.90;;;;;;5050802;28;20037;-69
2021/03/23 08:44:45;;;;;;;5.65;3.80;;;20.70;97.00;;;;;;5056255;28;20050;-70
2021/03/23 08:47:33;;;;;;;5.03;4.18;;;20.60;97.00;;;;;;5048290;28;20028;-68
2021/03/23 08:50:10;;;;;;;6.22;4.30;;;20.60;97.20;;;;;;5053861;28;20582;-71
2021/03/23 08:52:49;;;;;;;6.82;4.55;;;20.60;97.30;;;;;;5050188;28;20040;-71
2021/03/23 08:55:25;;;;;;;6.93;4.53;;;20.50;97.40;;;;;;5051253;28;20025;-71
2021/03/23 08:58:15;;;;;;;5.60;4.07;;;20.50;97.30;;;;;;5052105;28;20040;-70
2021/03/23 09:01:02;;;;;;;5.05;4.55;;;20.40;97.40;;;;;;5050405;28;20064;-71
2021/03/23 09:03:46;;;;;;;4.13;3.83;;;20.40;97.60;;;;;;5051622;28;20025;-71
2021/03/23 09:06:16;;;;;;;4.45;3.92;;;20.40;97.60;;;;;;5049358;28;22208;-69
2021/03/23 09:08:48;;;;;;;4.13;3.78;;;20.40;97.60;;;;;;5051777;28;20219;-70
2021/03/23 09:11:52;;;;;;;6.53;3.65;;;20.40;97.50;;;;;;5052404;28;20612;-73
2021/03/23 09:14:23;;;;;;;4.03;3.58;;;20.50;97.50;;;;;;5036370;28;20112;-70
2021/03/23 09:16:59;;;;;;;4.35;3.95;;;20.50;97.40;;;;;;5023227;28;20047;-72
2021/03/23 09:19:45;;;;;;;3.88;3.47;;;20.50;97.40;;;;;;5048825;28;20025;-70
2021/03/23 09:22:21;;;;;;;5.35;3.95;;;20.50;97.40;;;;;;5049110;28;20033;-69
2021/03/23 09:24:49;;;;;;;4.32;3.92;;;20.50;97.40;;;;;;5048302;28;20036;-68
2021/03/23 09:27:25;;;;;;;4.95;3.65;;;20.50;97.50;;;;;;5054252;28;20025;-71
2021/03/23 09:29:53;;;;;;;5.90;3.83;;;20.50;97.60;;;;;;5051163;28;20068;-70
2021/03/23 09:32:30;;;;;;;4.72;3.83;;;20.50;97.60;;;;;;5052233;28;20028;-72
2021/03/23 09:35:07;;;;;;;5.53;3.83;;;20.60;97.60;;;;;;5052072;28;20099;-70
2021/03/23 09:37:47;;;;;;;4.13;3.75;;;20.60;97.50;;;;;;5050494;28;20082;-69
2021/03/23 09:40:20;;;;;;;5.38;4.40;;;20.60;97.60;;;;;;5050140;28;21343;-70
2021/03/23 09:42:53;;;;;;;5.25;4.80;;;20.50;97.60;;;;;;5042889;28;20129;-70
2021/03/23 09:45:27;;;;;;;7.25;4.32;;;20.40;97.60;;;;;;5051251;28;20033;-70
2021/03/23 09:47:57;;;;;;;5.03;4.20;;;20.40;97.60;;;;;;5048616;28;20031;-69
2021/03/23 09:50:41;;;;;;;4.38;3.88;;;20.30;97.70;;;;;;5051352;28;20029;-69
2021/03/23 09:53:22;;;;;;;5.45;4.07;;;20.30;97.90;;;;;;5048506;28;20021;-69
2021/03/23 09:55:50;;;;;;;4.90;4.10;;;20.20;97.90;;;;;;5049783;28;20033;-69
2021/03/23 09:58:28;;;;;;;4.13;3.53;;;20.20;97.90;;;;;;5050768;28;20089;-67
2021/03/23 10:01:22;;;;;;;3.30;2.95;;;20.10;97.80;;;;;;5046615;28;20032;-69
2021/03/23 10:03:52;;;;;;;3.88;3.50;;;20.10;97.80;;;;;;5049124;28;20043;-68
2021/03/23 10:06:40;;;;;;;6.15;3.42;;;20.10;97.80;;;;;;5048663;28;20042;-70
2021/03/23 10:09:09;;;;;;;4.03;3.65;;;20.10;97.90;;;;;;5047269;28;20040;-71
2021/03/23 10:11:41;;;;;;;5.55;4.38;;;20.10;97.90;;;;;;5048115;28;20013;-71
2021/03/23 10:14:11;;;;;;;5.30;4.80;;;20.10;97.90;;;;;;5052640;28;20033;-72
2021/03/23 10:16:44;;;;;;;4.05;3.65;;;20.00;97.80;;;;;;5032883;28;20429;-71
2021/03/23 10:19:24;;;;;;;4.93;3.75;;;20.00;97.90;;;;;;5056863;28;20029;-69
2021/03/23 10:21:55;;;;;;;4.57;3.63;;;20.00;97.90;;;;;;5048442;28;20148;-72
2021/03/23 10:24:27;;;;;;;5.07;4.07;;;20.00;97.90;;;;;;5054419;28;20372;-70
2021/03/23 10:26:55;;;;;;;5.03;3.95;;;19.90;97.70;;;;;;5052539;28;20033;-70
2021/03/23 10:29:26;;;;;;;4.82;4.05;;;19.90;97.90;;;;;;5059647;28;20032;-71
2021/03/23 10:31:56;;;;;;;6.95;4.90;;;19.80;97.80;;;;;;5052883;28;20024;-72
2021/03/23 10:34:32;;;;;;;4.22;3.78;;;19.80;97.80;;;;;;5052012;28;20029;-70
2021/03/23 10:37:10;;;;;;;4.88;4.38;;;19.70;97.90;;;;;;5037357;28;20041;-71
2021/03/23 10:39:52;;;;;;;5.50;4.30;;;19.70;98.00;;;;;;5051189;28;20029;-69
2021/03/23 10:42:51;;;;;;;5.25;4.07;;;19.70;98.10;;;;;;5048192;28;20078;-70
2021/03/23 10:45:33;;;;;;;4.47;4.07;;;19.70;97.90;;;;;;5062299;28;20039;-68
2021/03/23 10:48:25;;;;;;;4.18;3.78;;;19.70;97.90;;;;;;5064366;28;20351;-68
2021/03/23 10:51:25;;;;;;;4.32;3.92;;;19.60;98.00;;;;;;5059611;28;20119;-68
2021/03/23 10:54:18;;;;;;;4.93;4.22;;;19.60;98.00;;;;;;5040620;28;20040;-69
2021/03/23 10:56:52;;;;;;;4.93;4.53;;;19.50;98.00;;;;;;5057821;28;20087;-69
2021/03/23 10:59:20;;;;;;;4.78;4.20;;;19.50;98.10;;;;;;5068370;28;20032;-68
2021/03/23 11:02:19;;;;;;;8.80;5.22;;;19.50;98.10;;;;;;5061117;28;20040;-68
2021/03/23 11:05:03;;;;;;;6.32;4.82;;;19.50;98.10;;;;;;5058481;28;20036;-69
2021/03/23 11:07:32;;;;;;;6.60;4.72;;;19.40;98.20;;;;;;5060153;28;20031;-69
2021/03/23 11:10:00;;;;;;;5.15;4.65;;;19.40;98.20;;;;;;5060792;28;20029;-69
2021/03/23 11:12:30;;;;;;;5.05;4.47;;;19.50;98.20;;;;;;5062303;28;20115;-70
2021/03/23 11:14:59;;;;;;;6.57;4.63;;;19.50;98.20;;;;;;5041989;28;20499;-69
2021/03/23 11:17:28;;;;;;;7.53;6.70;;;19.40;98.20;;;;;;5057452;28;20178;-71
2021/03/23 11:20:05;;;;;;;7.28;6.28;;;19.40;98.20;;;;;;5055732;28;20021;-69
2021/03/23 11:22:35;;;;;;;6.80;5.20;;;19.40;98.20;;;;;;5063654;28;20035;-70
2021/03/23 11:25:05;;;;;;;6.30;5.10;;;19.30;98.30;;;;;;5061966;28;20088;-69
2021/03/23 11:27:32;;;;;;;6.05;5.07;;;19.30;98.40;;;;;;5056148;28;20033;-69
2021/03/23 11:30:00;;;;;;;6.35;5.70;;;19.30;98.40;;;;;;5063153;28;20048;-69
2021/03/23 11:32:28;;;;;;;6.25;5.10;;;19.30;98.30;;;;;;5054827;28;20040;-69
2021/03/23 11:34:55;;;;;;;4.85;4.45;;;19.40;98.40;;;;;;5055553;28;20085;-71
2021/03/23 11:37:23;;;;;;;7.55;5.10;;;19.30;98.30;;;;;;5053832;28;20025;-71
2021/03/23 11:39:50;;;;;;;5.00;4.43;;;19.30;98.30;;;;;;5056114;28;20017;-70
2021/03/23 11:42:30;;;;;;;5.15;4.68;;;19.30;98.40;;;;;;5056408;28;20506;-70
2021/03/23 11:45:22;;;;;;;5.60;5.10;;;19.30;98.40;;;;;;5055865;28;20107;-70
2021/03/23 11:48:01;;;;;;;5.38;4.88;;;19.30;98.30;;;;;;5054398;28;20039;-70
2021/03/23 11:50:31;;;;;;;5.13;4.57;;;19.20;98.30;;;;;;5058435;28;20028;-69
2021/03/23 11:53:00;;;;;;;5.13;4.63;;;19.20;98.20;;;;;;5039601;28;20123;-69
2021/03/23 11:55:34;;;;;;;6.40;4.93;;;19.10;98.20;;;;;;5058184;28;20072;-71
2021/03/23 11:58:03;;;;;;;6.18;4.57;;;19.10;98.40;;;;;;5058133;28;20130;-70
2021/03/23 12:00:32;;;;;;;5.78;4.97;;;19.10;98.40;;;;;;5058652;28;20070;-68
2021/03/23 12:03:06;;;;;;;6.38;5.78;;;19.20;98.40;;;;;;5063481;28;20024;-68
2021/03/23 12:05:36;;;;;;;5.68;4.78;;;19.10;98.20;;;;;;5033975;28;20108;-68
2021/03/23 12:08:31;;;;;;;8.60;5.50;;;19.10;98.20;;;;;;5057606;28;20211;-68
2021/03/23 12:11:26;;;;;;;5.00;4.50;;;19.00;98.20;;;;;;5057401;28;20535;-70
2021/03/23 12:14:29;;;;;;;6.60;5.40;;;18.90;98.20;;;;;;5056184;28;20026;-69
2021/03/23 12:17:12;;;;;;;5.95;5.35;;;18.90;98.30;;;;;;5055881;28;20424;-70
2021/03/23 12:19:48;;;;;;;5.93;5.32;;;18.80;98.30;;;;;;5057051;28;20021;-69
2021/03/23 12:22:17;;;;;;;6.35;5.25;;;18.80;98.30;;;;;;5051526;28;20055;-70
2021/03/23 12:24:45;;;;;;;7.55;6.15;;;18.80;98.60;;;;;;5051890;28;20585;-69
2021/03/23 12:27:14;;;;;;;5.65;4.63;;;18.80;98.40;;;;;;5050689;28;20032;-69
2021/03/23 12:29:43;;;;;;;6.30;4.90;;;18.80;98.60;;;;;;5054180;28;20043;-69
2021/03/23 12:32:18;;;;;;;7.75;5.95;;;18.90;98.50;;;;;;5053685;28;20482;-70
2021/03/23 12:34:46;;;;;;;7.90;5.43;;;18.90;98.30;;;;;;5053488;28;20148;-68
2021/03/23 12:37:15;;;;;;;5.95;5.35;;;18.90;98.60;;;;;;5052028;28;20032;-68
2021/03/23 12:39:43;;;;;;;5.25;4.68;;;18.90;98.30;;;;;;5055432;28;20478;-69
2021/03/23 12:42:16;;;;;;;6.07;5.47;;;18.90;98.40;;;;;;5051812;28;20056;-72
2021/03/23 12:44:44;;;;;;;6.07;5.47;;;18.90;98.40;;;;;;5051396;28;20032;-69
2021/03/23 12:47:15;;;;;;;7.85;5.47;;;18.90;98.50;;;;;;5051256;28;20091;-69
2021/03/23 12:49:43;;;;;;;5.57;5.03;;;19.00;98.60;;;;;;5050484;28;21144;-70
2021/03/23 12:52:14;;;;;;;5.93;5.25;;;19.10;98.70;;;;;;5051966;28;20033;-68
2021/03/23 12:54:47;;;;;;;8.32;6.75;;;19.10;98.50;;;;;;5053807;28;20017;-69
2021/03/23 12:57:26;;;;;;;6.57;5.82;;;19.20;98.60;;;;;;5050869;28;20577;-69
2021/03/23 12:59:55;;;;;;;9.90;7.65;;;19.20;98.50;;;;;;5053061;28;20025;-69
2021/03/23 13:02:26;;;;;;;9.70;7.82;;;19.20;98.50;;;;;;5051389;28;20033;-69
2021/03/23 13:04:55;;;;;;;10.20;7.88;;;19.20;98.70;;;;;;5054169;28;20376;-69
2021/03/23 13:07:26;;;;;;;8.27;6.32;;;19.20;98.70;;;;;;5038787;28;20029;-68
2021/03/23 13:09:54;;;;;;;8.93;5.88;;;19.10;98.60;;;;;;5061134;28;20021;-73
2021/03/23 13:12:25;;;;;;;8.18;6.00;;;19.10;98.80;;;;;;5033456;28;20025;-70
2021/03/23 13:14:53;;;;;;;8.15;6.78;;;18.90;98.60;;;;;;5055854;28;20037;-71
2021/03/23 13:17:23;;;;;;;8.02;6.65;;;18.80;98.60;;;;;;5056873;28;20024;-70
2021/03/23 13:19:50;;;;;;;10.45;7.57;;;18.80;98.70;;;;;;5056889;28;20527;-72
2021/03/23 13:22:26;;;;;;;9.05;6.35;;;18.70;98.70;;;;;;5049859;28;20076;-70
2021/03/23 13:24:55;;;;;;;10.20;7.13;;;18.70;98.90;;;;;;5056130;28;20029;-70
2021/03/23 13:27:40;;;;;;;8.93;6.30;;;18.70;98.90;;;;;;5057329;28;20036;-69